sensor_id;sensor_type;location;lat;lon;timestamp;P1;durP1;ratioP1;P2;durP2;ratioP2
9254;SDS011;4663;49.120;9.730;2023-02-15T00:00:25;28.20;;;25.80;;
9254;SDS011;4663;49.120;9.730;2023-02-15T00:02:50;29.07;;;26.47;;
9254;SDS011;4663;49.120;9.730;2023-02-15T00:05:15;27.87;;;25.33;;
9254;SDS011;4663;49.120;9.730;2023-02-15T00:07:41;29.73;;;27.27;;
9254;SDS011;4663;49.120;9.730;2023-02-15T00:10:07;29.63;;;27.10;;
9254;SDS011;4663;49.120;9.730;2023-02-15T00:12:33;28.77;;;26.30;;
9254;SDS011;4663;49.120;9.730;2023-02-15T00:14:58;32.83;;;30.13;;
9254;SDS011;4663;49.120;9.730;2023-02-15T00:17:26;31.80;;;29.20;;
9254;SDS011;4663;49.120;9.730;2023-02-15T00:19:52;33.40;;;30.77;;
9254;SDS011;4663;49.120;9.730;2023-02-15T00:22:18;32.53;;;29.77;;
9254;SDS011;4663;49.120;9.730;2023-02-15T00:24:43;30.23;;;27.83;;
9254;SDS011;4663;49.120;9.730;2023-02-15T00:27:08;30.97;;;28.53;;
9254;SDS011;4663;49.120;9.730;2023-02-15T00:29:34;29.97;;;27.57;;
9254;SDS011;4663;49.120;9.730;2023-02-15T00:31:59;28.93;;;26.73;;
9254;SDS011;4663;49.120;9.730;2023-02-15T00:34:26;32.17;;;29.57;;
9254;SDS011;4663;49.120;9.730;2023-02-15T00:36:52;32.43;;;29.83;;
9254;SDS011;4663;49.120;9.730;2023-02-15T00:39:18;31.93;;;29.30;;
9254;SDS011;4663;49.120;9.730;2023-02-15T00:41:44;34.93;;;32.20;;
9254;SDS011;4663;49.120;9.730;2023-02-15T00:44:11;36.30;;;33.30;;
9254;SDS011;4663;49.120;9.730;2023-02-15T00:46:36;38.37;;;35.47;;
9254;SDS011;4663;49.120;9.730;2023-02-15T00:49:02;40.07;;;36.97;;
9254;SDS011;4663;49.120;9.730;2023-02-15T00:51:28;39.60;;;36.50;;
9254;SDS011;4663;49.120;9.730;2023-02-15T00:53:54;37.57;;;34.37;;
9254;SDS011;4663;49.120;9.730;2023-02-15T00:56:20;38.27;;;35.33;;
9254;SDS011;4663;49.120;9.730;2023-02-15T00:58:46;39.23;;;36.23;;
9254;SDS011;4663;49.120;9.730;2023-02-15T01:01:12;39.33;;;36.10;;
9254;SDS011;4663;49.120;9.730;2023-02-15T01:03:39;39.63;;;36.57;;
9254;SDS011;4663;49.120;9.730;2023-02-15T01:06:06;37.10;;;34.27;;
9254;SDS011;4663;49.120;9.730;2023-02-15T01:08:32;37.90;;;35.03;;
9254;SDS011;4663;49.120;9.730;2023-02-15T01:11:02;41.37;;;38.17;;
9254;SDS011;4663;49.120;9.730;2023-02-15T01:13:32;40.67;;;37.60;;
9254;SDS011;4663;49.120;9.730;2023-02-15T01:15:58;37.97;;;34.87;;
9254;SDS011;4663;49.120;9.730;2023-02-15T01:18:23;40.13;;;36.83;;
9254;SDS011;4663;49.120;9.730;2023-02-15T01:20:49;40.37;;;37.17;;
9254;SDS011;4663;49.120;9.730;2023-02-15T01:23:14;38.00;;;34.90;;
9254;SDS011;4663;49.120;9.730;2023-02-15T01:25:40;35.47;;;32.43;;
9254;SDS011;4663;49.120;9.730;2023-02-15T01:28:05;33.20;;;30.20;;
9254;SDS011;4663;49.120;9.730;2023-02-15T01:30:31;31.47;;;28.87;;
9254;SDS011;4663;49.120;9.730;2023-02-15T01:32:57;31.70;;;29.00;;
9254;SDS011;4663;49.120;9.730;2023-02-15T01:35:22;31.63;;;28.97;;
9254;SDS011;4663;49.120;9.730;2023-02-15T01:37:48;31.23;;;28.63;;
9254;SDS011;4663;49.120;9.730;2023-02-15T01:40:15;32.57;;;29.93;;
9254;SDS011;4663;49.120;9.730;2023-02-15T01:42:41;32.17;;;29.43;;
9254;SDS011;4663;49.120;9.730;2023-02-15T01:48:33;31.60;;;29.07;;
9254;SDS011;4663;49.120;9.730;2023-02-15T01:50:47;31.90;;;29.20;;
9254;SDS011;4663;49.120;9.730;2023-02-15T01:55:47;31.60;;;29.00;;
9254;SDS011;4663;49.120;9.730;2023-02-15T01:58:27;34.10;;;31.20;;
9254;SDS011;4663;49.120;9.730;2023-02-15T02:00:54;33.27;;;30.57;;
9254;SDS011;4663;49.120;9.730;2023-02-15T02:03:24;33.53;;;30.93;;
9254;SDS011;4663;49.120;9.730;2023-02-15T02:06:01;35.70;;;32.73;;
9254;SDS011;4663;49.120;9.730;2023-02-15T02:08:26;36.67;;;33.77;;
9254;SDS011;4663;49.120;9.730;2023-02-15T02:10:53;35.57;;;32.83;;
9254;SDS011;4663;49.120;9.730;2023-02-15T02:13:18;38.10;;;35.17;;
9254;SDS011;4663;49.120;9.730;2023-02-15T02:15:46;39.23;;;36.17;;
9254;SDS011;4663;49.120;9.730;2023-02-15T02:21:34;42.93;;;39.60;;
9254;SDS011;4663;49.120;9.730;2023-02-15T02:46:36;38.63;;;35.53;;
9254;SDS011;4663;49.120;9.730;2023-02-15T02:49:09;39.93;;;36.83;;
9254;SDS011;4663;49.120;9.730;2023-02-15T02:51:34;39.20;;;35.97;;
9254;SDS011;4663;49.120;9.730;2023-02-15T02:54:00;37.63;;;34.70;;
9254;SDS011;4663;49.120;9.730;2023-02-15T02:56:33;36.53;;;33.53;;
9254;SDS011;4663;49.120;9.730;2023-02-15T03:02:02;36.17;;;33.30;;
9254;SDS011;4663;49.120;9.730;2023-02-15T03:04:44;33.37;;;30.67;;
9254;SDS011;4663;49.120;9.730;2023-02-15T03:07:14;35.70;;;33.03;;
9254;SDS011;4663;49.120;9.730;2023-02-15T03:09:47;33.97;;;31.23;;
9254;SDS011;4663;49.120;9.730;2023-02-15T03:14:47;33.20;;;30.57;;
9254;SDS011;4663;49.120;9.730;2023-02-15T03:17:16;35.47;;;32.60;;
9254;SDS011;4663;49.120;9.730;2023-02-15T03:19:45;35.00;;;32.23;;
9254;SDS011;4663;49.120;9.730;2023-02-15T03:22:14;35.67;;;32.97;;
9254;SDS011;4663;49.120;9.730;2023-02-15T03:24:49;37.43;;;34.47;;
9254;SDS011;4663;49.120;9.730;2023-02-15T03:27:22;38.87;;;35.87;;
9254;SDS011;4663;49.120;9.730;2023-02-15T03:29:52;39.07;;;35.87;;
9254;SDS011;4663;49.120;9.730;2023-02-15T03:32:22;39.63;;;36.30;;
9254;SDS011;4663;49.120;9.730;2023-02-15T03:34:49;36.53;;;33.63;;
9254;SDS011;4663;49.120;9.730;2023-02-15T03:40:16;30.43;;;27.97;;
9254;SDS011;4663;49.120;9.730;2023-02-15T03:45:57;28.03;;;25.63;;
9254;SDS011;4663;49.120;9.730;2023-02-15T03:48:36;30.93;;;28.40;;
9254;SDS011;4663;49.120;9.730;2023-02-15T03:51:11;33.83;;;31.03;;
9254;SDS011;4663;49.120;9.730;2023-02-15T03:54:18;33.53;;;30.80;;
9254;SDS011;4663;49.120;9.730;2023-02-15T03:57:07;33.67;;;30.90;;
9254;SDS011;4663;49.120;9.730;2023-02-15T04:00:03;33.87;;;31.03;;
9254;SDS011;4663;49.120;9.730;2023-02-15T04:03:15;36.63;;;33.50;;
9254;SDS011;4663;49.120;9.730;2023-02-15T04:05:47;36.03;;;33.13;;
9254;SDS011;4663;49.120;9.730;2023-02-15T04:08:13;37.63;;;34.57;;
9254;SDS011;4663;49.120;9.730;2023-02-15T04:10:38;39.10;;;35.90;;
9254;SDS011;4663;49.120;9.730;2023-02-15T04:13:24;38.37;;;35.40;;
9254;SDS011;4663;49.120;9.730;2023-02-15T04:15:56;41.60;;;38.37;;
9254;SDS011;4663;49.120;9.730;2023-02-15T04:18:28;39.63;;;36.73;;
9254;SDS011;4663;49.120;9.730;2023-02-15T04:21:13;42.17;;;39.13;;
9254;SDS011;4663;49.120;9.730;2023-02-15T04:23:57;41.03;;;38.03;;
9254;SDS011;4663;49.120;9.730;2023-02-15T04:26:41;43.60;;;40.40;;
9254;SDS011;4663;49.120;9.730;2023-02-15T04:29:06;42.50;;;39.47;;
9254;SDS011;4663;49.120;9.730;2023-02-15T04:31:31;43.50;;;40.27;;
9254;SDS011;4663;49.120;9.730;2023-02-15T04:33:56;40.00;;;37.10;;
9254;SDS011;4663;49.120;9.730;2023-02-15T04:36:22;40.27;;;37.20;;
9254;SDS011;4663;49.120;9.730;2023-02-15T04:38:47;40.60;;;37.57;;
9254;SDS011;4663;49.120;9.730;2023-02-15T04:41:12;35.80;;;32.90;;
9254;SDS011;4663;49.120;9.730;2023-02-15T04:43:38;37.20;;;34.40;;
9254;SDS011;4663;49.120;9.730;2023-02-15T04:46:03;42.57;;;39.37;;
9254;SDS011;4663;49.120;9.730;2023-02-15T04:48:29;44.73;;;41.43;;
9254;SDS011;4663;49.120;9.730;2023-02-15T04:50:54;41.57;;;38.47;;
9254;SDS011;4663;49.120;9.730;2023-02-15T04:53:19;42.47;;;39.07;;
9254;SDS011;4663;49.120;9.730;2023-02-15T04:55:45;48.27;;;44.80;;
9254;SDS011;4663;49.120;9.730;2023-02-15T04:58:10;47.27;;;43.97;;
9254;SDS011;4663;49.120;9.730;2023-02-15T05:00:35;41.13;;;38.00;;
9254;SDS011;4663;49.120;9.730;2023-02-15T05:03:01;38.27;;;35.50;;
9254;SDS011;4663;49.120;9.730;2023-02-15T05:05:26;35.73;;;32.87;;
9254;SDS011;4663;49.120;9.730;2023-02-15T05:07:52;32.60;;;29.93;;
9254;SDS011;4663;49.120;9.730;2023-02-15T05:10:17;32.30;;;29.40;;
9254;SDS011;4663;49.120;9.730;2023-02-15T05:12:43;31.33;;;28.67;;
9254;SDS011;4663;49.120;9.730;2023-02-15T05:15:08;32.40;;;29.67;;
9254;SDS011;4663;49.120;9.730;2023-02-15T05:17:34;33.93;;;31.17;;
9254;SDS011;4663;49.120;9.730;2023-02-15T05:19:59;33.73;;;30.87;;
9254;SDS011;4663;49.120;9.730;2023-02-15T05:22:24;33.83;;;30.97;;
9254;SDS011;4663;49.120;9.730;2023-02-15T05:24:50;35.90;;;32.83;;
9254;SDS011;4663;49.120;9.730;2023-02-15T05:27:34;33.93;;;30.93;;
9254;SDS011;4663;49.120;9.730;2023-02-15T05:30:17;31.33;;;28.73;;
9254;SDS011;4663;49.120;9.730;2023-02-15T05:32:43;31.60;;;28.83;;
9254;SDS011;4663;49.120;9.730;2023-02-15T05:35:11;30.37;;;27.93;;
9254;SDS011;4663;49.120;9.730;2023-02-15T05:37:39;29.63;;;27.20;;
9254;SDS011;4663;49.120;9.730;2023-02-15T05:40:04;29.17;;;26.80;;
9254;SDS011;4663;49.120;9.730;2023-02-15T05:42:30;24.37;;;22.30;;
9254;SDS011;4663;49.120;9.730;2023-02-15T05:44:56;24.87;;;22.80;;
9254;SDS011;4663;49.120;9.730;2023-02-15T05:47:21;25.93;;;23.73;;
9254;SDS011;4663;49.120;9.730;2023-02-15T05:49:46;24.37;;;22.23;;
9254;SDS011;4663;49.120;9.730;2023-02-15T05:52:12;23.47;;;21.43;;
9254;SDS011;4663;49.120;9.730;2023-02-15T05:54:37;23.83;;;21.73;;
9254;SDS011;4663;49.120;9.730;2023-02-15T05:57:02;24.13;;;21.97;;
9254;SDS011;4663;49.120;9.730;2023-02-15T05:59:28;22.60;;;20.60;;
9254;SDS011;4663;49.120;9.730;2023-02-15T06:01:53;24.57;;;22.37;;
9254;SDS011;4663;49.120;9.730;2023-02-15T06:04:18;24.73;;;22.43;;
9254;SDS011;4663;49.120;9.730;2023-02-15T06:06:44;24.23;;;22.23;;
9254;SDS011;4663;49.120;9.730;2023-02-15T06:09:10;23.87;;;21.77;;
9254;SDS011;4663;49.120;9.730;2023-02-15T06:11:37;23.43;;;21.53;;
9254;SDS011;4663;49.120;9.730;2023-02-15T06:14:02;23.50;;;21.60;;
9254;SDS011;4663;49.120;9.730;2023-02-15T06:16:28;25.27;;;23.27;;
9254;SDS011;4663;49.120;9.730;2023-02-15T06:18:53;28.30;;;26.00;;
9254;SDS011;4663;49.120;9.730;2023-02-15T06:21:18;27.83;;;25.53;;
9254;SDS011;4663;49.120;9.730;2023-02-15T06:23:44;27.10;;;25.03;;
9254;SDS011;4663;49.120;9.730;2023-02-15T06:26:09;27.27;;;25.13;;
9254;SDS011;4663;49.120;9.730;2023-02-15T06:28:36;29.63;;;27.43;;
9254;SDS011;4663;49.120;9.730;2023-02-15T06:31:02;29.10;;;26.80;;
9254;SDS011;4663;49.120;9.730;2023-02-15T06:33:28;27.57;;;25.33;;
9254;SDS011;4663;49.120;9.730;2023-02-15T06:35:55;28.80;;;26.47;;
9254;SDS011;4663;49.120;9.730;2023-02-15T06:38:20;29.40;;;26.70;;
9254;SDS011;4663;49.120;9.730;2023-02-15T06:40:46;26.43;;;24.23;;
9254;SDS011;4663;49.120;9.730;2023-02-15T06:43:11;25.70;;;23.50;;
9254;SDS011;4663;49.120;9.730;2023-02-15T06:45:36;25.10;;;23.07;;
9254;SDS011;4663;49.120;9.730;2023-02-15T06:48:02;25.53;;;23.33;;
9254;SDS011;4663;49.120;9.730;2023-02-15T06:50:27;25.33;;;23.13;;
9254;SDS011;4663;49.120;9.730;2023-02-15T06:52:59;25.97;;;23.60;;
9254;SDS011;4663;49.120;9.730;2023-02-15T06:55:24;24.80;;;22.67;;
9254;SDS011;4663;49.120;9.730;2023-02-15T06:57:50;25.00;;;22.80;;
9254;SDS011;4663;49.120;9.730;2023-02-15T07:00:15;26.67;;;24.23;;
9254;SDS011;4663;49.120;9.730;2023-02-15T07:02:42;26.07;;;23.67;;
9254;SDS011;4663;49.120;9.730;2023-02-15T07:05:08;27.17;;;24.53;;
9254;SDS011;4663;49.120;9.730;2023-02-15T07:07:34;26.20;;;23.83;;
9254;SDS011;4663;49.120;9.730;2023-02-15T07:09:59;25.37;;;23.17;;
9254;SDS011;4663;49.120;9.730;2023-02-15T07:12:24;24.93;;;22.53;;
9254;SDS011;4663;49.120;9.730;2023-02-15T07:15:13;24.13;;;22.13;;
9254;SDS011;4663;49.120;9.730;2023-02-15T07:17:41;23.93;;;21.73;;
9254;SDS011;4663;49.120;9.730;2023-02-15T07:20:08;25.90;;;23.57;;
9254;SDS011;4663;49.120;9.730;2023-02-15T07:22:38;24.53;;;22.33;;
9254;SDS011;4663;49.120;9.730;2023-02-15T07:25:04;27.17;;;24.53;;
9254;SDS011;4663;49.120;9.730;2023-02-15T07:27:30;28.80;;;26.13;;
9254;SDS011;4663;49.120;9.730;2023-02-15T07:29:56;29.80;;;27.30;;
9254;SDS011;4663;49.120;9.730;2023-02-15T07:32:21;33.93;;;31.07;;
9254;SDS011;4663;49.120;9.730;2023-02-15T07:34:46;38.30;;;35.37;;
9254;SDS011;4663;49.120;9.730;2023-02-15T07:37:12;40.60;;;37.47;;
9254;SDS011;4663;49.120;9.730;2023-02-15T07:39:37;44.33;;;40.93;;
9254;SDS011;4663;49.120;9.730;2023-02-15T07:42:03;40.17;;;37.17;;
9254;SDS011;4663;49.120;9.730;2023-02-15T07:44:28;43.43;;;40.27;;
9254;SDS011;4663;49.120;9.730;2023-02-15T07:46:53;43.27;;;39.77;;
9254;SDS011;4663;49.120;9.730;2023-02-15T07:49:19;43.17;;;39.67;;
9254;SDS011;4663;49.120;9.730;2023-02-15T07:51:44;48.43;;;45.00;;
9254;SDS011;4663;49.120;9.730;2023-02-15T07:54:10;46.67;;;43.23;;
9254;SDS011;4663;49.120;9.730;2023-02-15T07:56:36;46.77;;;43.27;;
9254;SDS011;4663;49.120;9.730;2023-02-15T07:59:01;47.53;;;44.17;;
9254;SDS011;4663;49.120;9.730;2023-02-15T08:01:31;44.93;;;41.37;;
9254;SDS011;4663;49.120;9.730;2023-02-15T08:04:00;41.47;;;38.23;;
9254;SDS011;4663;49.120;9.730;2023-02-15T08:06:26;46.83;;;43.20;;
9254;SDS011;4663;49.120;9.730;2023-02-15T08:08:53;45.07;;;41.50;;
9254;SDS011;4663;49.120;9.730;2023-02-15T08:11:20;45.33;;;41.63;;
9254;SDS011;4663;49.120;9.730;2023-02-15T08:16:40;50.43;;;46.77;;
9254;SDS011;4663;49.120;9.730;2023-02-15T08:21:38;40.43;;;37.47;;
9254;SDS011;4663;49.120;9.730;2023-02-15T08:24:06;36.23;;;33.20;;
9254;SDS011;4663;49.120;9.730;2023-02-15T08:26:33;35.23;;;32.37;;
9254;SDS011;4663;49.120;9.730;2023-02-15T08:28:59;31.90;;;29.07;;
9254;SDS011;4663;49.120;9.730;2023-02-15T08:31:24;30.20;;;27.60;;
9254;SDS011;4663;49.120;9.730;2023-02-15T08:33:51;28.63;;;26.00;;
9254;SDS011;4663;49.120;9.730;2023-02-15T08:36:19;27.73;;;25.33;;
9254;SDS011;4663;49.120;9.730;2023-02-15T08:38:46;26.37;;;23.83;;
9254;SDS011;4663;49.120;9.730;2023-02-15T08:41:13;26.17;;;23.70;;
9254;SDS011;4663;49.120;9.730;2023-02-15T08:43:39;26.83;;;22.43;;
9254;SDS011;4663;49.120;9.730;2023-02-15T08:46:06;27.57;;;25.20;;
9254;SDS011;4663;49.120;9.730;2023-02-15T08:48:32;43.90;;;40.73;;
9254;SDS011;4663;49.120;9.730;2023-02-15T08:50:57;51.73;;;48.43;;
9254;SDS011;4663;49.120;9.730;2023-02-15T08:53:23;48.33;;;44.97;;
9254;SDS011;4663;49.120;9.730;2023-02-15T08:55:58;46.53;;;43.30;;
9254;SDS011;4663;49.120;9.730;2023-02-15T08:58:24;38.77;;;35.63;;
9254;SDS011;4663;49.120;9.730;2023-02-15T09:00:52;33.63;;;30.60;;
9254;SDS011;4663;49.120;9.730;2023-02-15T09:03:18;33.00;;;30.30;;
9254;SDS011;4663;49.120;9.730;2023-02-15T09:05:43;29.57;;;27.07;;
9254;SDS011;4663;49.120;9.730;2023-02-15T09:08:08;28.70;;;26.20;;
9254;SDS011;4663;49.120;9.730;2023-02-15T09:10:34;25.67;;;23.43;;
9254;SDS011;4663;49.120;9.730;2023-02-15T09:12:59;24.17;;;21.97;;
9254;SDS011;4663;49.120;9.730;2023-02-15T09:15:24;24.87;;;22.77;;
9254;SDS011;4663;49.120;9.730;2023-02-15T09:17:50;23.10;;;21.10;;
9254;SDS011;4663;49.120;9.730;2023-02-15T09:20:15;24.07;;;21.97;;
9254;SDS011;4663;49.120;9.730;2023-02-15T09:22:41;27.90;;;25.57;;
9254;SDS011;4663;49.120;9.730;2023-02-15T09:25:06;54.93;;;51.43;;
9254;SDS011;4663;49.120;9.730;2023-02-15T09:27:32;47.37;;;44.23;;
9254;SDS011;4663;49.120;9.730;2023-02-15T09:29:57;29.83;;;27.43;;
9254;SDS011;4663;49.120;9.730;2023-02-15T09:32:23;24.63;;;22.50;;
9254;SDS011;4663;49.120;9.730;2023-02-15T09:34:48;22.87;;;21.07;;
9254;SDS011;4663;49.120;9.730;2023-02-15T09:37:13;27.57;;;25.40;;
9254;SDS011;4663;49.120;9.730;2023-02-15T09:39:40;36.70;;;33.80;;
9254;SDS011;4663;49.120;9.730;2023-02-15T09:53:27;39.80;;;36.67;;
9254;SDS011;4663;49.120;9.730;2023-02-15T09:56:20;36.67;;;34.27;;
9254;SDS011;4663;49.120;9.730;2023-02-15T10:03:50;28.40;;;26.20;;
9254;SDS011;4663;49.120;9.730;2023-02-15T10:09:02;30.77;;;28.43;;
9254;SDS011;4663;49.120;9.730;2023-02-15T10:11:44;25.77;;;23.67;;
9254;SDS011;4663;49.120;9.730;2023-02-15T10:17:22;26.47;;;24.27;;
9254;SDS011;4663;49.120;9.730;2023-02-15T10:28:09;38.43;;;35.87;;
9254;SDS011;4663;49.120;9.730;2023-02-15T10:41:52;55.73;;;52.43;;
9254;SDS011;4663;49.120;9.730;2023-02-15T10:44:42;48.27;;;45.27;;
9254;SDS011;4663;49.120;9.730;2023-02-15T10:53:17;35.70;;;33.20;;
9254;SDS011;4663;49.120;9.730;2023-02-15T11:07:05;22.73;;;20.93;;
9254;SDS011;4663;49.120;9.730;2023-02-15T11:09:49;23.80;;;21.90;;
9254;SDS011;4663;49.120;9.730;2023-02-15T11:12:21;24.67;;;22.83;;
9254;SDS011;4663;49.120;9.730;2023-02-15T11:17:32;25.77;;;23.53;;
9254;SDS011;4663;49.120;9.730;2023-02-15T11:22:31;24.13;;;22.10;;
9254;SDS011;4663;49.120;9.730;2023-02-15T11:24:58;29.23;;;26.97;;
9254;SDS011;4663;49.120;9.730;2023-02-15T11:27:26;31.47;;;29.20;;
9254;SDS011;4663;49.120;9.730;2023-02-15T11:32:40;37.20;;;34.83;;
9254;SDS011;4663;49.120;9.730;2023-02-15T11:40:23;30.60;;;28.50;;
9254;SDS011;4663;49.120;9.730;2023-02-15T11:43:01;28.95;;;26.90;;
9254;SDS011;4663;49.120;9.730;2023-02-15T11:45:35;28.30;;;26.30;;
9254;SDS011;4663;49.120;9.730;2023-02-15T11:48:01;26.63;;;24.40;;
9254;SDS011;4663;49.120;9.730;2023-02-15T11:50:35;28.48;;;26.38;;
9254;SDS011;4663;49.120;9.730;2023-02-15T11:53:02;31.17;;;28.88;;
9254;SDS011;4663;49.120;9.730;2023-02-15T11:55:30;32.10;;;30.00;;
9254;SDS011;4663;49.120;9.730;2023-02-15T12:00:49;29.95;;;27.90;;
9254;SDS011;4663;49.120;9.730;2023-02-15T12:03:26;28.20;;;26.05;;
9254;SDS011;4663;49.120;9.730;2023-02-15T12:06:02;27.75;;;25.65;;
9254;SDS011;4663;49.120;9.730;2023-02-15T12:08:39;24.23;;;22.42;;
9254;SDS011;4663;49.120;9.730;2023-02-15T12:11:12;24.88;;;22.83;;
9254;SDS011;4663;49.120;9.730;2023-02-15T12:13:59;25.60;;;23.60;;
9254;SDS011;4663;49.120;9.730;2023-02-15T12:16:31;25.27;;;23.40;;
9254;SDS011;4663;49.120;9.730;2023-02-15T12:19:04;25.10;;;23.20;;
9254;SDS011;4663;49.120;9.730;2023-02-15T12:21:31;25.52;;;23.63;;
9254;SDS011;4663;49.120;9.730;2023-02-15T12:26:56;23.20;;;21.40;;
9254;SDS011;4663;49.120;9.730;2023-02-15T12:29:42;23.88;;;22.08;;
9254;SDS011;4663;49.120;9.730;2023-02-15T12:32:25;25.65;;;23.60;;
9254;SDS011;4663;49.120;9.730;2023-02-15T12:34:55;30.27;;;28.17;;
9254;SDS011;4663;49.120;9.730;2023-02-15T12:37:27;30.73;;;28.58;;
9254;SDS011;4663;49.120;9.730;2023-02-15T12:40:00;29.35;;;27.25;;
9254;SDS011;4663;49.120;9.730;2023-02-15T12:42:43;27.50;;;25.63;;
9254;SDS011;4663;49.120;9.730;2023-02-15T12:45:20;26.02;;;23.92;;
9254;SDS011;4663;49.120;9.730;2023-02-15T12:47:53;24.55;;;22.75;;
9254;SDS011;4663;49.120;9.730;2023-02-15T12:50:44;26.73;;;24.67;;
9254;SDS011;4663;49.120;9.730;2023-02-15T12:55:57;27.50;;;25.50;;
9254;SDS011;4663;49.120;9.730;2023-02-15T12:58:29;28.15;;;26.10;;
9254;SDS011;4663;49.120;9.730;2023-02-15T13:06:26;37.50;;;35.08;;
9254;SDS011;4663;49.120;9.730;2023-02-15T13:08:54;40.83;;;38.10;;
9254;SDS011;4663;49.120;9.730;2023-02-15T13:11:26;40.92;;;38.30;;
9254;SDS011;4663;49.120;9.730;2023-02-15T13:14:03;47.00;;;43.97;;
9254;SDS011;4663;49.120;9.730;2023-02-15T13:16:41;43.88;;;41.13;;
9254;SDS011;4663;49.120;9.730;2023-02-15T13:19:29;44.78;;;41.90;;
9254;SDS011;4663;49.120;9.730;2023-02-15T13:21:58;43.63;;;40.90;;
9254;SDS011;4663;49.120;9.730;2023-02-15T13:24:32;42.75;;;39.78;;
9254;SDS011;4663;49.120;9.730;2023-02-15T13:27:02;41.92;;;39.38;;
9254;SDS011;4663;49.120;9.730;2023-02-15T13:29:33;45.97;;;43.17;;
9254;SDS011;4663;49.120;9.730;2023-02-15T13:34:47;46.03;;;43.13;;
9254;SDS011;4663;49.120;9.730;2023-02-15T13:37:18;43.67;;;40.90;;
9254;SDS011;4663;49.120;9.730;2023-02-15T13:39:54;47.00;;;44.08;;
9254;SDS011;4663;49.120;9.730;2023-02-15T13:42:28;44.33;;;41.57;;
9254;SDS011;4663;49.120;9.730;2023-02-15T13:45:21;45.97;;;43.17;;
9254;SDS011;4663;49.120;9.730;2023-02-15T13:58:59;38.90;;;36.50;;
9254;SDS011;4663;49.120;9.730;2023-02-15T14:07:23;28.73;;;26.70;;
9254;SDS011;4663;49.120;9.730;2023-02-15T14:25:57;24.07;;;22.33;;
9254;SDS011;4663;49.120;9.730;2023-02-15T14:28:42;24.63;;;22.80;;
9254;SDS011;4663;49.120;9.730;2023-02-15T14:31:14;23.27;;;21.48;;
9254;SDS011;4663;49.120;9.730;2023-02-15T14:33:42;24.45;;;22.58;;
9254;SDS011;4663;49.120;9.730;2023-02-15T14:36:16;23.17;;;21.30;;
9254;SDS011;4663;49.120;9.730;2023-02-15T14:41:37;22.10;;;20.40;;
9254;SDS011;4663;49.120;9.730;2023-02-15T14:49:41;21.60;;;19.90;;
9254;SDS011;4663;49.120;9.730;2023-02-15T15:04:40;23.27;;;21.27;;
9254;SDS011;4663;49.120;9.730;2023-02-15T15:15:32;26.83;;;24.77;;
9254;SDS011;4663;49.120;9.730;2023-02-15T15:18:00;29.90;;;27.70;;
9254;SDS011;4663;49.120;9.730;2023-02-15T15:23:32;30.17;;;28.00;;
9254;SDS011;4663;49.120;9.730;2023-02-15T15:25:44;32.70;;;30.27;;
9254;SDS011;4663;49.120;9.730;2023-02-15T15:28:57;35.87;;;33.27;;
9254;SDS011;4663;49.120;9.730;2023-02-15T15:47:26;47.97;;;44.83;;
9254;SDS011;4663;49.120;9.730;2023-02-15T15:49:58;48.17;;;45.17;;
9254;SDS011;4663;49.120;9.730;2023-02-15T15:52:24;48.17;;;44.70;;
9254;SDS011;4663;49.120;9.730;2023-02-15T15:54:58;46.67;;;43.67;;
9254;SDS011;4663;49.120;9.730;2023-02-15T15:57:33;43.80;;;40.83;;
9254;SDS011;4663;49.120;9.730;2023-02-15T16:00:04;41.53;;;38.73;;
9254;SDS011;4663;49.120;9.730;2023-02-15T16:02:49;39.97;;;37.10;;
9254;SDS011;4663;49.120;9.730;2023-02-15T16:05:16;36.33;;;33.70;;
9254;SDS011;4663;49.120;9.730;2023-02-15T16:07:41;34.17;;;31.47;;
9254;SDS011;4663;49.120;9.730;2023-02-15T16:10:07;30.67;;;28.50;;
9254;SDS011;4663;49.120;9.730;2023-02-15T16:12:45;27.23;;;25.10;;
9254;SDS011;4663;49.120;9.730;2023-02-15T16:15:14;27.67;;;25.50;;
9254;SDS011;4663;49.120;9.730;2023-02-15T16:17:45;25.40;;;23.27;;
9254;SDS011;4663;49.120;9.730;2023-02-15T16:20:20;25.53;;;23.47;;
9254;SDS011;4663;49.120;9.730;2023-02-15T16:23:06;25.43;;;23.33;;
9254;SDS011;4663;49.120;9.730;2023-02-15T16:28:36;23.73;;;21.70;;
9254;SDS011;4663;49.120;9.730;2023-02-15T16:31:11;25.40;;;23.37;;
9254;SDS011;4663;49.120;9.730;2023-02-15T16:33:39;25.00;;;22.90;;
9254;SDS011;4663;49.120;9.730;2023-02-15T16:41:12;25.07;;;23.07;;
9254;SDS011;4663;49.120;9.730;2023-02-15T16:43:40;24.17;;;22.20;;
9254;SDS011;4663;49.120;9.730;2023-02-15T16:46:10;25.27;;;23.07;;
9254;SDS011;4663;49.120;9.730;2023-02-15T16:48:44;23.77;;;21.70;;
9254;SDS011;4663;49.120;9.730;2023-02-15T16:51:23;24.57;;;22.30;;
9254;SDS011;4663;49.120;9.730;2023-02-15T16:53:51;24.20;;;22.20;;
9254;SDS011;4663;49.120;9.730;2023-02-15T16:56:25;24.63;;;22.43;;
9254;SDS011;4663;49.120;9.730;2023-02-15T16:58:53;25.23;;;22.93;;
9254;SDS011;4663;49.120;9.730;2023-02-15T17:01:21;27.27;;;24.97;;
9254;SDS011;4663;49.120;9.730;2023-02-15T17:03:50;26.53;;;24.37;;
9254;SDS011;4663;49.120;9.730;2023-02-15T17:06:34;29.60;;;27.40;;
9254;SDS011;4663;49.120;9.730;2023-02-15T17:09:04;30.20;;;27.87;;
9254;SDS011;4663;49.120;9.730;2023-02-15T17:11:35;30.70;;;28.27;;
9254;SDS011;4663;49.120;9.730;2023-02-15T17:14:11;32.23;;;29.93;;
9254;SDS011;4663;49.120;9.730;2023-02-15T17:16:46;34.30;;;31.67;;
9254;SDS011;4663;49.120;9.730;2023-02-15T17:21:48;41.47;;;38.23;;
9254;SDS011;4663;49.120;9.730;2023-02-15T17:24:16;46.13;;;42.73;;
9254;SDS011;4663;49.120;9.730;2023-02-15T17:26:55;49.17;;;45.50;;
9254;SDS011;4663;49.120;9.730;2023-02-15T17:29:32;49.33;;;45.80;;
9254;SDS011;4663;49.120;9.730;2023-02-15T17:32:02;52.87;;;49.00;;
9254;SDS011;4663;49.120;9.730;2023-02-15T17:34:43;53.03;;;49.23;;
9254;SDS011;4663;49.120;9.730;2023-02-15T17:37:13;53.17;;;49.47;;
9254;SDS011;4663;49.120;9.730;2023-02-15T17:39:48;57.67;;;53.67;;
9254;SDS011;4663;49.120;9.730;2023-02-15T17:42:13;57.03;;;53.30;;
9254;SDS011;4663;49.120;9.730;2023-02-15T17:44:38;57.90;;;54.10;;
9254;SDS011;4663;49.120;9.730;2023-02-15T17:47:04;57.03;;;52.93;;
9254;SDS011;4663;49.120;9.730;2023-02-15T17:49:29;51.03;;;47.57;;
9254;SDS011;4663;49.120;9.730;2023-02-15T17:51:59;48.93;;;45.53;;
9254;SDS011;4663;49.120;9.730;2023-02-15T17:54:28;47.67;;;44.27;;
9254;SDS011;4663;49.120;9.730;2023-02-15T17:57:14;35.70;;;33.00;;
9254;SDS011;4663;49.120;9.730;2023-02-15T17:59:40;36.40;;;33.60;;
9254;SDS011;4663;49.120;9.730;2023-02-15T18:02:25;34.40;;;31.50;;
9254;SDS011;4663;49.120;9.730;2023-02-15T18:05:15;30.50;;;27.70;;
9254;SDS011;4663;49.120;9.730;2023-02-15T18:07:59;28.33;;;26.10;;
9254;SDS011;4663;49.120;9.730;2023-02-15T18:10:43;27.27;;;24.77;;
9254;SDS011;4663;49.120;9.730;2023-02-15T18:13:27;26.97;;;24.67;;
9254;SDS011;4663;49.120;9.730;2023-02-15T18:15:52;25.57;;;23.43;;
9254;SDS011;4663;49.120;9.730;2023-02-15T18:18:17;27.43;;;24.73;;
9254;SDS011;4663;49.120;9.730;2023-02-15T18:20:43;25.53;;;23.23;;
9254;SDS011;4663;49.120;9.730;2023-02-15T18:23:18;26.60;;;24.00;;
9254;SDS011;4663;49.120;9.730;2023-02-15T18:25:43;26.90;;;24.47;;
9254;SDS011;4663;49.120;9.730;2023-02-15T18:28:08;25.63;;;23.40;;
9254;SDS011;4663;49.120;9.730;2023-02-15T18:30:34;27.67;;;25.27;;
9254;SDS011;4663;49.120;9.730;2023-02-15T18:33:00;29.60;;;27.13;;
9254;SDS011;4663;49.120;9.730;2023-02-15T18:35:27;28.47;;;25.70;;
9254;SDS011;4663;49.120;9.730;2023-02-15T18:37:55;33.13;;;30.33;;
9254;SDS011;4663;49.120;9.730;2023-02-15T18:40:21;35.63;;;32.73;;
9254;SDS011;4663;49.120;9.730;2023-02-15T18:42:49;36.50;;;33.60;;
9254;SDS011;4663;49.120;9.730;2023-02-15T18:47:49;40.23;;;37.17;;
9254;SDS011;4663;49.120;9.730;2023-02-15T18:50:15;40.83;;;37.73;;
9254;SDS011;4663;49.120;9.730;2023-02-15T18:52:43;41.30;;;38.30;;
9254;SDS011;4663;49.120;9.730;2023-02-15T18:55:23;46.17;;;42.87;;